sensor_id;sensor_type;location;lat;lon;timestamp;pressure;altitude;pressure_sealevel;temperature;humidity
30819;BME280;17546;42.674;23.284;2022-12-28T00:01:45;95737.47;;;15.04;44.71
30819;BME280;17546;42.674;23.284;2022-12-28T00:04:12;95747.38;;;15.11;44.78
30819;BME280;17546;42.674;23.284;2022-12-28T00:06:38;95746.13;;;15.23;44.40
30819;BME280;17546;42.674;23.284;2022-12-28T00:09:03;95750.47;;;15.30;44.38
30819;BME280;17546;42.674;23.284;2022-12-28T00:11:29;95741.84;;;15.34;44.17
30819;BME280;17546;42.674;23.284;2022-12-28T00:13:55;95749.47;;;15.44;44.01
30819;BME280;17546;42.674;23.284;2022-12-28T00:16:30;95742.41;;;15.55;43.57
30819;BME280;17546;42.674;23.284;2022-12-28T00:18:57;95743.13;;;15.49;43.54
30819;BME280;17546;42.674;23.284;2022-12-28T00:21:23;95744.22;;;14.81;45.01
30819;BME280;17546;42.674;23.284;2022-12-28T00:23:50;95754.47;;;15.12;44.32
30819;BME280;17546;42.674;23.284;2022-12-28T00:26:16;95764.94;;;15.34;43.76
30819;BME280;17546;42.674;23.284;2022-12-28T00:28:42;95759.16;;;14.78;44.73
30819;BME280;17546;42.674;23.284;2022-12-28T00:31:07;95753.53;;;14.66;45.36
30819;BME280;17546;42.674;23.284;2022-12-28T00:33:33;95754.53;;;14.63;45.43
30819;BME280;17546;42.674;23.284;2022-12-28T00:36:00;95763.94;;;14.72;45.20
30819;BME280;17546;42.674;23.284;2022-12-28T00:38:27;95759.69;;;14.82;45.04
30819;BME280;17546;42.674;23.284;2022-12-28T00:40:52;95772.44;;;15.05;44.22
30819;BME280;17546;42.674;23.284;2022-12-28T00:43:18;95776.56;;;15.16;44.32
30819;BME280;17546;42.674;23.284;2022-12-28T00:45:45;95782.69;;;15.31;43.82
30819;BME280;17546;42.674;23.284;2022-12-28T00:48:11;95789.56;;;15.36;43.84
30819;BME280;17546;42.674;23.284;2022-12-28T00:50:37;95785.72;;;15.22;44.06
30819;BME280;17546;42.674;23.284;2022-12-28T00:53:02;95779.06;;;15.02;44.56
30819;BME280;17546;42.674;23.284;2022-12-28T00:55:28;95776.00;;;15.00;44.72
30819;BME280;17546;42.674;23.284;2022-12-28T00:57:53;95784.88;;;15.04;44.66
30819;BME280;17546;42.674;23.284;2022-12-28T01:00:18;95789.94;;;15.00;44.92
30819;BME280;17546;42.674;23.284;2022-12-28T01:02:44;95790.44;;;14.99;45.36
30819;BME280;17546;42.674;23.284;2022-12-28T01:05:09;95791.88;;;14.77;46.04
30819;BME280;17546;42.674;23.284;2022-12-28T01:07:35;95792.03;;;15.11;45.25
30819;BME280;17546;42.674;23.284;2022-12-28T01:10:00;95789.50;;;15.19;45.17
30819;BME280;17546;42.674;23.284;2022-12-28T01:12:27;95779.59;;;15.18;45.55
30819;BME280;17546;42.674;23.284;2022-12-28T01:14:53;95781.63;;;15.12;45.48
30819;BME280;17546;42.674;23.284;2022-12-28T01:17:19;95781.41;;;15.26;45.15
30819;BME280;17546;42.674;23.284;2022-12-28T01:19:44;95782.66;;;15.25;45.03
30819;BME280;17546;42.674;23.284;2022-12-28T01:22:09;95775.06;;;15.26;44.90
30819;BME280;17546;42.674;23.284;2022-12-28T01:24:35;95781.91;;;15.19;44.90
30819;BME280;17546;42.674;23.284;2022-12-28T01:27:00;95779.13;;;15.25;44.75
30819;BME280;17546;42.674;23.284;2022-12-28T01:29:26;95776.59;;;15.27;44.45
30819;BME280;17546;42.674;23.284;2022-12-28T01:31:51;95782.19;;;15.38;44.54
30819;BME280;17546;42.674;23.284;2022-12-28T01:34:17;95783.34;;;14.98;45.54
30819;BME280;17546;42.674;23.284;2022-12-28T01:36:42;95781.34;;;15.04;45.21
30819;BME280;17546;42.674;23.284;2022-12-28T01:39:09;95778.19;;;14.79;45.90
30819;BME280;17546;42.674;23.284;2022-12-28T01:41:37;95774.16;;;14.86;45.69
30819;BME280;17546;42.674;23.284;2022-12-28T01:46:37;95772.91;;;14.87;45.28
30819;BME280;17546;42.674;23.284;2022-12-28T01:49:09;95786.47;;;14.25;46.67
30819;BME280;17546;42.674;23.284;2022-12-28T01:51:43;95783.63;;;14.19;46.79
30819;BME280;17546;42.674;23.284;2022-12-28T01:54:11;95771.84;;;14.04;47.12
30819;BME280;17546;42.674;23.284;2022-12-28T01:56:38;95772.31;;;14.34;46.36
30819;BME280;17546;42.674;23.284;2022-12-28T01:59:04;95766.22;;;14.30;46.30
30819;BME280;17546;42.674;23.284;2022-12-28T02:01:30;95776.75;;;14.52;45.63
30819;BME280;17546;42.674;23.284;2022-12-28T02:03:55;95764.56;;;14.50;45.56
30819;BME280;17546;42.674;23.284;2022-12-28T02:06:21;95769.00;;;14.30;45.76
30819;BME280;17546;42.674;23.284;2022-12-28T02:09:01;95761.63;;;14.64;45.29
30819;BME280;17546;42.674;23.284;2022-12-28T02:11:28;95757.72;;;14.51;45.25
30819;BME280;17546;42.674;23.284;2022-12-28T02:13:54;95760.47;;;14.45;45.38
30819;BME280;17546;42.674;23.284;2022-12-28T02:16:21;95762.66;;;14.30;45.41
30819;BME280;17546;42.674;23.284;2022-12-28T02:18:48;95760.25;;;13.79;46.09
30819;BME280;17546;42.674;23.284;2022-12-28T02:29:35;95739.09;;;13.61;45.88
30819;BME280;17546;42.674;23.284;2022-12-28T02:32:25;95740.75;;;13.27;46.73
30819;BME280;17546;42.674;23.284;2022-12-28T02:35:08;95732.69;;;13.50;46.09
30819;BME280;17546;42.674;23.284;2022-12-28T02:37:48;95730.88;;;13.47;46.11
30819;BME280;17546;42.674;23.284;2022-12-28T02:40:22;95729.97;;;13.87;45.21
30819;BME280;17546;42.674;23.284;2022-12-28T02:42:53;95735.28;;;13.59;45.40
30819;BME280;17546;42.674;23.284;2022-12-28T02:45:45;95736.81;;;13.34;45.83
30819;BME280;17546;42.674;23.284;2022-12-28T02:48:44;95734.00;;;13.28;45.61
30819;BME280;17546;42.674;23.284;2022-12-28T02:59:48;95714.53;;;13.60;44.15
30819;BME280;17546;42.674;23.284;2022-12-28T03:11:10;95708.78;;;14.01;43.16
30819;BME280;17546;42.674;23.284;2022-12-28T03:13:54;95710.03;;;14.00;43.23
30819;BME280;17546;42.674;23.284;2022-12-28T03:16:22;95707.69;;;14.30;42.74
30819;BME280;17546;42.674;23.284;2022-12-28T03:18:56;95707.25;;;14.43;42.22
30819;BME280;17546;42.674;23.284;2022-12-28T03:21:43;95712.25;;;13.90;42.99
30819;BME280;17546;42.674;23.284;2022-12-28T03:24:28;95707.09;;;14.15;42.48
30819;BME280;17546;42.674;23.284;2022-12-28T03:27:16;95723.16;;;13.94;42.53
30819;BME280;17546;42.674;23.284;2022-12-28T03:30:05;95725.69;;;13.92;42.71
30819;BME280;17546;42.674;23.284;2022-12-28T03:32:51;95738.41;;;14.04;42.14
30819;BME280;17546;42.674;23.284;2022-12-28T03:35:18;95738.06;;;14.22;42.02
30819;BME280;17546;42.674;23.284;2022-12-28T03:37:59;95726.16;;;14.27;41.84
30819;BME280;17546;42.674;23.284;2022-12-28T03:43:07;95738.47;;;14.53;41.33
30819;BME280;17546;42.674;23.284;2022-12-28T03:45:58;95727.91;;;14.62;41.02
30819;BME280;17546;42.674;23.284;2022-12-28T03:48:27;95726.19;;;14.71;40.92
30819;BME280;17546;42.674;23.284;2022-12-28T03:50:53;95730.97;;;14.64;41.09
30819;BME280;17546;42.674;23.284;2022-12-28T03:53:23;95729.19;;;14.24;41.17
30819;BME280;17546;42.674;23.284;2022-12-28T03:55:50;95725.94;;;14.31;41.18
30819;BME280;17546;42.674;23.284;2022-12-28T03:58:16;95710.84;;;14.49;41.04
30819;BME280;17546;42.674;23.284;2022-12-28T04:00:42;95711.97;;;14.69;40.59
30819;BME280;17546;42.674;23.284;2022-12-28T04:03:07;95718.56;;;14.77;40.58
30819;BME280;17546;42.674;23.284;2022-12-28T04:05:33;95718.56;;;14.77;40.20
30819;BME280;17546;42.674;23.284;2022-12-28T04:07:58;95723.94;;;14.80;39.78
30819;BME280;17546;42.674;23.284;2022-12-28T04:10:23;95708.47;;;14.85;39.63
30819;BME280;17546;42.674;23.284;2022-12-28T04:12:53;95724.50;;;14.96;39.78
30819;BME280;17546;42.674;23.284;2022-12-28T04:15:18;95712.56;;;14.95;39.32
30819;BME280;17546;42.674;23.284;2022-12-28T04:17:44;95713.09;;;14.99;39.25
30819;BME280;17546;42.674;23.284;2022-12-28T04:20:09;95706.47;;;14.91;39.24
30819;BME280;17546;42.674;23.284;2022-12-28T04:22:35;95723.25;;;15.02;39.30
30819;BME280;17546;42.674;23.284;2022-12-28T04:25:00;95731.19;;;14.55;39.87
30819;BME280;17546;42.674;23.284;2022-12-28T04:27:26;95744.38;;;14.60;39.80
30819;BME280;17546;42.674;23.284;2022-12-28T04:29:51;95746.81;;;13.78;41.16
30819;BME280;17546;42.674;23.284;2022-12-28T04:32:16;95749.75;;;13.37;41.93
30819;BME280;17546;42.674;23.284;2022-12-28T04:34:42;95752.03;;;13.64;41.64
30819;BME280;17546;42.674;23.284;2022-12-28T04:37:07;95759.22;;;13.77;40.81
30819;BME280;17546;42.674;23.284;2022-12-28T04:39:33;95752.16;;;13.50;41.28
30819;BME280;17546;42.674;23.284;2022-12-28T04:41:58;95750.88;;;13.77;40.73
30819;BME280;17546;42.674;23.284;2022-12-28T04:44:23;95764.09;;;13.56;40.95
30819;BME280;17546;42.674;23.284;2022-12-28T04:46:49;95763.16;;;13.64;40.63
30819;BME280;17546;42.674;23.284;2022-12-28T04:49:14;95762.72;;;13.98;39.94
30819;BME280;17546;42.674;23.284;2022-12-28T04:51:39;95763.22;;;14.02;39.90
30819;BME280;17546;42.674;23.284;2022-12-28T04:54:05;95760.09;;;14.26;39.62
30819;BME280;17546;42.674;23.284;2022-12-28T04:56:31;95773.13;;;14.03;39.72
30819;BME280;17546;42.674;23.284;2022-12-28T04:58:58;95763.13;;;13.91;39.96
30819;BME280;17546;42.674;23.284;2022-12-28T05:01:29;95762.63;;;14.24;39.39
30819;BME280;17546;42.674;23.284;2022-12-28T05:03:55;95765.25;;;14.39;39.38
30819;BME280;17546;42.674;23.284;2022-12-28T05:06:22;95747.13;;;14.55;39.28
30819;BME280;17546;42.674;23.284;2022-12-28T05:08:48;95748.50;;;14.71;39.12
30819;BME280;17546;42.674;23.284;2022-12-28T05:11:17;95747.47;;;14.74;38.97
30819;BME280;17546;42.674;23.284;2022-12-28T05:13:43;95743.69;;;14.77;39.03
30819;BME280;17546;42.674;23.284;2022-12-28T05:16:14;95746.53;;;14.94;38.78
30819;BME280;17546;42.674;23.284;2022-12-28T05:18:40;95755.44;;;15.03;38.59
30819;BME280;17546;42.674;23.284;2022-12-28T05:21:17;95751.19;;;15.08;38.34
30819;BME280;17546;42.674;23.284;2022-12-28T05:23:43;95746.13;;;15.18;38.73
30819;BME280;17546;42.674;23.284;2022-12-28T05:26:11;95741.72;;;14.88;38.72
30819;BME280;17546;42.674;23.284;2022-12-28T05:28:37;95749.63;;;15.07;38.42
30819;BME280;17546;42.674;23.284;2022-12-28T05:31:05;95763.78;;;14.92;38.08
30819;BME280;17546;42.674;23.284;2022-12-28T05:33:33;95762.13;;;14.57;38.44
30819;BME280;17546;42.674;23.284;2022-12-28T05:36:03;95751.28;;;14.71;37.64
30819;BME280;17546;42.674;23.284;2022-12-28T05:38:29;95769.81;;;14.36;38.07
30819;BME280;17546;42.674;23.284;2022-12-28T05:40:55;95779.00;;;14.48;37.37
30819;BME280;17546;42.674;23.284;2022-12-28T05:43:20;95767.75;;;14.31;37.49
30819;BME280;17546;42.674;23.284;2022-12-28T05:45:46;95780.63;;;14.29;37.21
30819;BME280;17546;42.674;23.284;2022-12-28T05:48:11;95775.16;;;14.40;37.03
30819;BME280;17546;42.674;23.284;2022-12-28T05:50:36;95776.66;;;14.35;37.32
30819;BME280;17546;42.674;23.284;2022-12-28T05:53:02;95784.69;;;14.27;37.63
30819;BME280;17546;42.674;23.284;2022-12-28T05:55:27;95781.38;;;14.23;37.18
30819;BME280;17546;42.674;23.284;2022-12-28T05:57:54;95784.81;;;14.07;37.61
30819;BME280;17546;42.674;23.284;2022-12-28T06:00:20;95782.97;;;13.98;37.64
30819;BME280;17546;42.674;23.284;2022-12-28T06:02:46;95783.63;;;14.19;37.24
30819;BME280;17546;42.674;23.284;2022-12-28T06:05:11;95774.56;;;14.30;37.24
30819;BME280;17546;42.674;23.284;2022-12-28T06:07:38;95791.63;;;14.38;37.17
30819;BME280;17546;42.674;23.284;2022-12-28T06:10:04;95792.66;;;14.40;37.24
30819;BME280;17546;42.674;23.284;2022-12-28T06:12:31;95798.34;;;14.25;37.32
30819;BME280;17546;42.674;23.284;2022-12-28T06:14:56;95804.66;;;13.89;37.84
30819;BME280;17546;42.674;23.284;2022-12-28T06:17:22;95810.66;;;13.81;38.29
30819;BME280;17546;42.674;23.284;2022-12-28T06:19:47;95805.19;;;13.93;37.88
30819;BME280;17546;42.674;23.284;2022-12-28T06:22:12;95795.50;;;14.14;37.95
30819;BME280;17546;42.674;23.284;2022-12-28T06:24:38;95792.53;;;14.23;37.54
30819;BME280;17546;42.674;23.284;2022-12-28T06:27:03;95797.47;;;14.40;37.66
30819;BME280;17546;42.674;23.284;2022-12-28T06:29:29;95792.22;;;14.53;37.40
30819;BME280;17546;42.674;23.284;2022-12-28T06:31:54;95793.28;;;14.61;37.21
30819;BME280;17546;42.674;23.284;2022-12-28T06:34:20;95785.50;;;14.77;37.22
30819;BME280;17546;42.674;23.284;2022-12-28T06:36:49;95797.72;;;14.85;37.10
30819;BME280;17546;42.674;23.284;2022-12-28T06:39:15;95809.03;;;14.64;37.11
30819;BME280;17546;42.674;23.284;2022-12-28T06:41:41;95815.13;;;14.63;37.32
30819;BME280;17546;42.674;23.284;2022-12-28T06:44:08;95818.94;;;14.65;37.52
30819;BME280;17546;42.674;23.284;2022-12-28T06:46:34;95817.88;;;14.57;37.11
30819;BME280;17546;42.674;23.284;2022-12-28T06:49:00;95818.94;;;14.65;37.12
30819;BME280;17546;42.674;23.284;2022-12-28T06:51:28;95812.38;;;14.69;36.91
30819;BME280;17546;42.674;23.284;2022-12-28T06:53:54;95814.88;;;14.66;37.28
30819;BME280;17546;42.674;23.284;2022-12-28T06:56:22;95819.00;;;14.77;37.22
30819;BME280;17546;42.674;23.284;2022-12-28T06:58:49;95817.00;;;14.83;37.29
30819;BME280;17546;42.674;23.284;2022-12-28T07:01:23;95816.81;;;14.55;36.97
30819;BME280;17546;42.674;23.284;2022-12-28T07:03:51;95813.34;;;14.65;37.02
30819;BME280;17546;42.674;23.284;2022-12-28T07:06:19;95803.53;;;14.81;37.01
30819;BME280;17546;42.674;23.284;2022-12-28T07:08:45;95795.75;;;14.91;36.75
30819;BME280;17546;42.674;23.284;2022-12-28T07:11:15;95806.19;;;15.02;36.79
30819;BME280;17546;42.674;23.284;2022-12-28T07:13:42;95805.41;;;15.01;36.95
30819;BME280;17546;42.674;23.284;2022-12-28T07:16:12;95804.91;;;14.97;36.63
30819;BME280;17546;42.674;23.284;2022-12-28T07:18:38;95804.84;;;14.86;36.56
30819;BME280;17546;42.674;23.284;2022-12-28T07:21:06;95807.19;;;14.99;36.35
30819;BME280;17546;42.674;23.284;2022-12-28T07:23:33;95801.91;;;15.06;36.31
30819;BME280;17546;42.674;23.284;2022-12-28T07:26:07;95801.91;;;15.06;35.97
30819;BME280;17546;42.674;23.284;2022-12-28T07:28:35;95801.84;;;14.95;36.47
30819;BME280;17546;42.674;23.284;2022-12-28T07:31:09;95816.88;;;14.60;37.40
30819;BME280;17546;42.674;23.284;2022-12-28T07:33:35;95813.13;;;14.69;37.78
30819;BME280;17546;42.674;23.284;2022-12-28T07:36:02;95832.66;;;14.75;37.30
30819;BME280;17546;42.674;23.284;2022-12-28T07:38:28;95825.50;;;14.62;37.18
30819;BME280;17546;42.674;23.284;2022-12-28T07:41:11;95832.28;;;14.93;36.68
30819;BME280;17546;42.674;23.284;2022-12-28T07:43:37;95819.53;;;14.81;36.31
30819;BME280;17546;42.674;23.284;2022-12-28T07:46:07;95821.66;;;14.97;36.91
30819;BME280;17546;42.674;23.284;2022-12-28T07:48:35;95819.63;;;14.98;36.84
30819;BME280;17546;42.674;23.284;2022-12-28T07:51:18;95832.22;;;14.82;37.19
30819;BME280;17546;42.674;23.284;2022-12-28T07:53:46;95824.19;;;15.01;36.92
30819;BME280;17546;42.674;23.284;2022-12-28T07:56:12;95829.81;;;15.06;36.73
30819;BME280;17546;42.674;23.284;2022-12-28T07:58:40;95825.28;;;15.15;36.31
30819;BME280;17546;42.674;23.284;2022-12-28T08:01:10;95822.72;;;15.17;36.68
30819;BME280;17546;42.674;23.284;2022-12-28T08:03:37;95819.16;;;15.11;36.66
30819;BME280;17546;42.674;23.284;2022-12-28T08:06:08;95824.78;;;15.22;36.65
30819;BME280;17546;42.674;23.284;2022-12-28T08:08:35;95829.84;;;15.18;36.66
30819;BME280;17546;42.674;23.284;2022-12-28T08:11:06;95825.78;;;15.19;36.89
30819;BME280;17546;42.674;23.284;2022-12-28T08:13:37;95825.09;;;15.35;36.42
30819;BME280;17546;42.674;23.284;2022-12-28T08:16:03;95824.34;;;15.40;36.55
30819;BME280;17546;42.674;23.284;2022-12-28T08:18:29;95817.25;;;15.39;36.51
30819;BME280;17546;42.674;23.284;2022-12-28T08:21:00;95827.56;;;15.16;36.41
30819;BME280;17546;42.674;23.284;2022-12-28T08:23:26;95829.28;;;14.59;37.03
30819;BME280;17546;42.674;23.284;2022-12-28T08:25:51;95833.59;;;14.60;37.21
30819;BME280;17546;42.674;23.284;2022-12-28T08:28:17;95833.41;;;14.06;37.75
30819;BME280;17546;42.674;23.284;2022-12-28T08:30:42;95831.44;;;14.44;37.29
30819;BME280;17546;42.674;23.284;2022-12-28T08:33:08;95832.16;;;14.71;37.02
30819;BME280;17546;42.674;23.284;2022-12-28T08:35:33;95829.03;;;14.57;37.21
30819;BME280;17546;42.674;23.284;2022-12-28T08:37:58;95838.25;;;14.75;36.88
30819;BME280;17546;42.674;23.284;2022-12-28T08:40:24;95840.38;;;14.91;36.60
30819;BME280;17546;42.674;23.284;2022-12-28T08:42:57;95839.56;;;14.79;36.74
30819;BME280;17546;42.674;23.284;2022-12-28T08:45:24;95832.81;;;14.97;36.54
30819;BME280;17546;42.674;23.284;2022-12-28T08:47:50;95831.25;;;14.96;36.43
30819;BME280;17546;42.674;23.284;2022-12-28T08:50:15;95824.97;;;15.07;36.48
30819;BME280;17546;42.674;23.284;2022-12-28T08:52:40;95825.53;;;15.17;35.96
30819;BME280;17546;42.674;23.284;2022-12-28T08:55:06;95830.88;;;15.15;36.16
30819;BME280;17546;42.674;23.284;2022-12-28T08:57:32;95829.06;;;15.12;35.91
30819;BME280;17546;42.674;23.284;2022-12-28T08:59:57;95818.38;;;15.10;36.05
30819;BME280;17546;42.674;23.284;2022-12-28T09:02:23;95818.19;;;15.25;35.99
30819;BME280;17546;42.674;23.284;2022-12-28T09:04:48;95814.34;;;15.17;36.15
30819;BME280;17546;42.674;23.284;2022-12-28T09:07:14;95817.16;;;15.17;36.10
30819;BME280;17546;42.674;23.284;2022-12-28T09:09:39;95792.75;;;15.00;36.33
30819;BME280;17546;42.674;23.284;2022-12-28T09:12:04;95803.09;;;14.94;36.55
30819;BME280;17546;42.674;23.284;2022-12-28T09:14:31;95799.06;;;15.01;36.29
30819;BME280;17546;42.674;23.284;2022-12-28T09:16:56;95797.78;;;14.96;36.77
30819;BME280;17546;42.674;23.284;2022-12-28T09:19:22;95804.00;;;14.74;36.81
30819;BME280;17546;42.674;23.284;2022-12-28T09:21:48;95804.59;;;14.84;37.01
30819;BME280;17546;42.674;23.284;2022-12-28T09:24:16;95797.81;;;15.02;36.86
30819;BME280;17546;42.674;23.284;2022-12-28T09:26:42;95797.31;;;15.03;36.87
30819;BME280;17546;42.674;23.284;2022-12-28T09:29:10;95793.53;;;15.06;36.88
30819;BME280;17546;42.674;23.284;2022-12-28T09:31:36;95789.19;;;15.05;37.19
30819;BME280;17546;42.674;23.284;2022-12-28T09:34:07;95790.78;;;15.23;36.53
30819;BME280;17546;42.674;23.284;2022-12-28T09:36:40;95783.66;;;15.11;37.00
30819;BME280;17546;42.674;23.284;2022-12-28T09:39:12;95789.16;;;14.94;37.11
30819;BME280;17546;42.674;23.284;2022-12-28T09:41:48;95772.38;;;14.83;37.30
30819;BME280;17546;42.674;23.284;2022-12-28T09:49:56;95758.31;;;15.15;37.35
30819;BME280;17546;42.674;23.284;2022-12-28T09:52:50;95756.44;;;14.95;37.46
30819;BME280;17546;42.674;23.284;2022-12-28T09:55:17;95761.84;;;15.21;37.06
30819;BME280;17546;42.674;23.284;2022-12-28T09:57:47;95755.50;;;15.15;37.22
30819;BME280;17546;42.674;23.284;2022-12-28T10:00:20;95751.84;;;14.86;37.88
30819;BME280;17546;42.674;23.284;2022-12-28T10:05:21;95746.63;;;15.11;37.21
30819;BME280;17546;42.674;23.284;2022-12-28T10:07:46;95744.34;;;15.15;37.02
30819;BME280;17546;42.674;23.284;2022-12-28T10:10:16;95735.47;;;15.22;36.77
30819;BME280;17546;42.674;23.284;2022-12-28T10:12:43;95739.81;;;15.34;36.93
30819;BME280;17546;42.674;23.284;2022-12-28T10:15:13;95733.00;;;15.52;36.75
30819;BME280;17546;42.674;23.284;2022-12-28T10:17:40;95735.53;;;15.67;36.92
30819;BME280;17546;42.674;23.284;2022-12-28T10:20:14;95734.97;;;15.23;36.96
30819;BME280;17546;42.674;23.284;2022-12-28T10:22:40;95749.00;;;15.57;36.63
30819;BME280;17546;42.674;23.284;2022-12-28T10:25:25;95730.13;;;15.18;37.22
30819;BME280;17546;42.674;23.284;2022-12-28T10:27:51;95730.63;;;15.17;37.01
30819;BME280;17546;42.674;23.284;2022-12-28T10:30:22;95721.69;;;15.01;37.60
30819;BME280;17546;42.674;23.284;2022-12-28T10:32:58;95724.31;;;15.22;37.39
30819;BME280;17546;42.674;23.284;2022-12-28T10:38:00;95723.00;;;15.12;37.77
30819;BME280;17546;42.674;23.284;2022-12-28T10:40:28;95729.69;;;15.37;36.89
30819;BME280;17546;42.674;23.284;2022-12-28T10:42:55;95726.44;;;15.72;36.50
30819;BME280;17546;42.674;23.284;2022-12-28T10:47:51;95717.97;;;15.21;36.91
30819;BME280;17546;42.674;23.284;2022-12-28T10:50:55;95714.66;;;14.52;37.82
30819;BME280;17546;42.674;23.284;2022-12-28T10:53:27;95717.22;;;15.38;36.65
30819;BME280;17546;42.674;23.284;2022-12-28T10:56:19;95721.84;;;15.80;36.10
30819;BME280;17546;42.674;23.284;2022-12-28T10:58:46;95725.41;;;15.98;35.86
30819;BME280;17546;42.674;23.284;2022-12-28T11:03:40;95726.19;;;15.93;35.52
30819;BME280;17546;42.674;23.284;2022-12-28T11:06:27;95722.13;;;15.82;35.65
30819;BME280;17546;42.674;23.284;2022-12-28T11:11:36;95720.59;;;15.76;36.21
30819;BME280;17546;42.674;23.284;2022-12-28T11:14:12;95726.38;;;15.61;37.26
30819;BME280;17546;42.674;23.284;2022-12-28T11:16:39;95719.47;;;15.17;37.42
30819;BME280;17546;42.674;23.284;2022-12-28T11:19:05;95722.59;;;15.64;36.30
30819;BME280;17546;42.674;23.284;2022-12-28T11:21:32;95730.25;;;15.80;36.09
30819;BME280;17546;42.674;23.284;2022-12-28T11:23:59;95738.09;;;15.76;36.08
30819;BME280;17546;42.674;23.284;2022-12-28T11:26:26;95743.66;;;15.65;35.85
30819;BME280;17546;42.674;23.284;2022-12-28T11:28:52;95743.59;;;15.20;36.11
30819;BME280;17546;42.674;23.284;2022-12-28T11:31:34;95743.41;;;14.75;37.10
30819;BME280;17546;42.674;23.284;2022-12-28T11:34:03;95742.34;;;14.55;37.32
30819;BME280;17546;42.674;23.284;2022-12-28T11:36:32;95722.66;;;14.76;37.13
30819;BME280;17546;42.674;23.284;2022-12-28T11:41:50;95733.66;;;15.02;36.86
30819;BME280;17546;42.674;23.284;2022-12-28T11:47:18;95730.19;;;15.46;36.55
30819;BME280;17546;42.674;23.284;2022-12-28T11:49:46;95728.16;;;15.41;36.36
30819;BME280;17546;42.674;23.284;2022-12-28T11:57:50;95727.28;;;15.01;37.21
30819;BME280;17546;42.674;23.284;2022-12-28T12:10:48;95695.47;;;15.81;35.98
30819;BME280;17546;42.674;23.284;2022-12-28T12:13:42;95695.44;;;15.70;36.17
30819;BME280;17546;42.674;23.284;2022-12-28T12:16:43;95695.41;;;15.47;36.68
30819;BME280;17546;42.674;23.284;2022-12-28T12:19:26;95679.91;;;15.24;36.91
30819;BME280;17546;42.674;23.284;2022-12-28T12:24:41;95675.88;;;15.59;36.62
30819;BME280;17546;42.674;23.284;2022-12-28T12:29:59;95673.78;;;14.97;38.17
30819;BME280;17546;42.674;23.284;2022-12-28T12:32:35;95677.63;;;15.22;38.07
30819;BME280;17546;42.674;23.284;2022-12-28T12:35:04;95674.88;;;15.50;37.47
30819;BME280;17546;42.674;23.284;2022-12-28T12:48:31;95681.47;;;15.70;37.28
30819;BME280;17546;42.674;23.284;2022-12-28T12:57:32;95672.59;;;15.94;37.21
30819;BME280;17546;42.674;23.284;2022-12-28T12:59:53;95672.03;;;16.07;37.25
30819;BME280;17546;42.674;23.284;2022-12-28T13:05:05;95651.97;;;15.18;37.84
30819;BME280;17546;42.674;23.284;2022-12-28T13:07:32;95662.94;;;15.78;36.94
30819;BME280;17546;42.674;23.284;2022-12-28T13:10:01;95658.34;;;15.47;37.64
30819;BME280;17546;42.674;23.284;2022-12-28T13:12:28;95656.28;;;15.02;38.63
30819;BME280;17546;42.674;23.284;2022-12-28T13:14:58;95659.38;;;15.38;38.05
30819;BME280;17546;42.674;23.284;2022-12-28T13:17:25;95648.72;;;15.42;38.26
30819;BME280;17546;42.674;23.284;2022-12-28T13:20:06;95635.00;;;15.33;38.24
30819;BME280;17546;42.674;23.284;2022-12-28T13:22:32;95647.94;;;15.64;37.34
30819;BME280;17546;42.674;23.284;2022-12-28T13:24:58;95648.97;;;15.84;37.53
30819;BME280;17546;42.674;23.284;2022-12-28T13:27:30;95639.31;;;15.68;37.88
30819;BME280;17546;42.674;23.284;2022-12-28T13:29:57;95640.09;;;15.85;37.23
30819;BME280;17546;42.674;23.284;2022-12-28T13:32:27;95649.19;;;15.91;37.45
30819;BME280;17546;42.674;23.284;2022-12-28T13:34:53;95652.22;;;16.05;37.56
30819;BME280;17546;42.674;23.284;2022-12-28T13:37:20;95652.72;;;16.09;37.57
30819;BME280;17546;42.674;23.284;2022-12-28T13:39:45;95646.84;;;16.18;37.41
30819;BME280;17546;42.674;23.284;2022-12-28T13:45:03;95642.81;;;16.25;37.48
30819;BME280;17546;42.674;23.284;2022-12-28T13:47:39;95644.53;;;16.33;37.35
30819;BME280;17546;42.674;23.284;2022-12-28T13:50:13;95648.16;;;16.23;37.53
30819;BME280;17546;42.674;23.284;2022-12-28T13:55:18;95639.72;;;16.28;37.30
30819;BME280;17546;42.674;23.284;2022-12-28T13:57:47;95644.56;;;16.22;37.31
30819;BME280;17546;42.674;23.284;2022-12-28T14:00:19;95640.00;;;16.19;37.44
30819;BME280;17546;42.674;23.284;2022-12-28T14:02:46;95635.16;;;16.25;37.53
30819;BME280;17546;42.674;23.284;2022-12-28T14:05:17;95635.66;;;16.24;37.70
30819;BME280;17546;42.674;23.284;2022-12-28T14:07:44;95645.06;;;16.26;37.86
30819;BME280;17546;42.674;23.284;2022-12-28T14:10:11;95637.44;;;16.32;38.03
30819;BME280;17546;42.674;23.284;2022-12-28T14:12:37;95632.34;;;16.37;37.84
30819;BME280;17546;42.674;23.284;2022-12-28T14:15:04;95634.63;;;16.32;38.00
30819;BME280;17546;42.674;23.284;2022-12-28T14:17:30;95617.34;;;16.34;37.96
30819;BME280;17546;42.674;23.284;2022-12-28T14:19:55;95635.63;;;16.41;38.10
30819;BME280;17546;42.674;23.284;2022-12-28T14:22:38;95637.38;;;16.44;38.02
30819;BME280;17546;42.674;23.284;2022-12-28T14:25:13;95635.88;;;16.43;37.76
30819;BME280;17546;42.674;23.284;2022-12-28T14:27:42;95636.13;;;16.39;38.02
30819;BME280;17546;42.674;23.284;2022-12-28T14:30:26;95631.09;;;16.32;38.09
30819;BME280;17546;42.674;23.284;2022-12-28T14:32:54;95652.19;;;16.27;37.94
30819;BME280;17546;42.674;23.284;2022-12-28T14:35:25;95646.84;;;16.29;38.05
30819;BME280;17546;42.674;23.284;2022-12-28T14:37:53;95652.69;;;16.26;38.37
30819;BME280;17546;42.674;23.284;2022-12-28T14:40:27;95653.75;;;16.06;38.39
30819;BME280;17546;42.674;23.284;2022-12-28T14:42:53;95657.28;;;16.23;38.16